createdAt,value
2022-09-21T00:00:33.894Z,100.00
2022-09-21T00:05:37.310Z,100.00
2022-09-21T00:10:41.261Z,100.00
2022-09-21T00:15:48.764Z,100.00
2022-09-21T00:20:54.740Z,100.00
2022-09-21T06:46:44.890Z,100.00
2022-09-21T06:51:50.183Z,100.00
2022-09-21T06:56:55.806Z,100.00
2022-09-21T07:02:03.955Z,100.00
2022-09-21T07:07:09.670Z,100.00
2022-09-21T07:12:15.111Z,100.00
2022-09-21T07:17:19.530Z,100.00
2022-09-21T07:22:24.646Z,100.00
2022-09-21T07:27:30.688Z,100.00
2022-09-21T07:32:34.700Z,100.00
2022-09-21T07:37:40.193Z,100.00
2022-09-21T07:42:45.147Z,100.00
2022-09-21T07:47:48.730Z,100.00
2022-09-21T07:52:57.622Z,100.00
2022-09-21T07:58:18.800Z,100.00
2022-09-21T08:03:22.462Z,100.00
2022-09-21T08:08:27.616Z,100.00
2022-09-21T08:13:33.562Z,100.00
2022-09-21T08:18:44.616Z,100.00
2022-09-21T08:23:51.984Z,100.00
2022-09-21T08:28:58.874Z,100.00
2022-09-21T08:34:05.729Z,100.00
2022-09-21T08:39:11.007Z,100.00
2022-09-21T08:44:20.689Z,100.00
2022-09-21T08:49:28.918Z,100.00
2022-09-21T08:54:45.266Z,100.00
2022-09-21T08:59:50.645Z,100.00
2022-09-21T09:05:04.641Z,100.00
2022-09-21T09:10:21.054Z,100.00
2022-09-21T09:15:42.868Z,100.00
2022-09-21T09:20:50.495Z,100.00
2022-09-21T09:26:01.161Z,100.00
2022-09-21T09:31:14.628Z,100.00
2022-09-21T09:36:30.071Z,100.00
2022-09-21T09:42:23.939Z,100.00
2022-09-21T09:47:39.948Z,100.00
2022-09-21T09:52:45.236Z,100.00
2022-09-21T09:57:50.192Z,100.00
2022-09-21T10:02:56.566Z,100.00
2022-09-21T10:08:31.303Z,100.00
2022-09-21T10:13:45.023Z,100.00
2022-09-21T10:18:52.118Z,100.00
2022-09-21T10:24:04.364Z,100.00
2022-09-21T10:29:20.456Z,100.00
2022-09-21T10:34:27.350Z,100.00
2022-09-21T10:39:32.558Z,100.00
2022-09-21T10:44:40.354Z,100.00
2022-09-21T10:49:50.259Z,100.00
2022-09-21T10:54:57.117Z,100.00
2022-09-21T11:00:29.593Z,100.00
2022-09-21T11:05:38.142Z,90.23
2022-09-21T11:10:48.366Z,99.17
2022-09-21T11:15:57.820Z,100.00
2022-09-21T11:21:10.515Z,100.00
2022-09-21T11:26:23.339Z,100.00
2022-09-21T11:31:50.146Z,100.00
2022-09-21T11:37:09.910Z,100.00
2022-09-21T11:42:23.802Z,100.00
2022-09-21T11:47:41.408Z,100.00
2022-09-21T11:52:59.753Z,100.00
2022-09-21T11:58:18.619Z,100.00
2022-09-21T12:03:41.605Z,100.00
2022-09-21T12:09:29.726Z,100.00
2022-09-21T12:14:42.798Z,100.00
2022-09-21T12:19:56.864Z,98.07
2022-09-21T12:25:04.348Z,99.15
2022-09-21T12:30:14.950Z,100.00
2022-09-21T12:35:25.717Z,100.00
2022-09-21T12:40:38.033Z,100.00
2022-09-21T12:45:47.389Z,100.00
2022-09-21T12:50:57.147Z,100.00
2022-09-21T12:56:09.653Z,100.00
2022-09-21T13:01:26.221Z,100.00
2022-09-21T13:06:50.530Z,100.00
2022-09-21T13:11:56.979Z,100.00
2022-09-21T13:17:04.971Z,100.00
2022-09-21T13:22:18.970Z,100.00
2022-09-21T13:27:22.462Z,100.00
2022-09-21T13:32:54.719Z,100.00
2022-09-21T13:38:25.928Z,100.00
2022-09-21T13:44:05.225Z,99.87
2022-09-21T13:49:21.291Z,100.00
2022-09-21T13:54:28.057Z,92.08
2022-09-21T13:59:34.890Z,91.91
2022-09-21T14:04:41.118Z,87.41
2022-09-21T14:09:55.902Z,98.31
2022-09-21T14:15:34.329Z,100.00
2022-09-21T14:20:39.867Z,91.35
2022-09-21T14:25:52.167Z,92.70
2022-09-21T14:31:00.449Z,87.05
2022-09-21T14:36:11.589Z,94.12
2022-09-21T14:41:20.295Z,92.19
2022-09-21T14:46:59.807Z,87.27
2022-09-21T14:52:24.900Z,90.59
2022-09-21T14:57:49.363Z,92.12
2022-09-21T15:03:19.349Z,89.83
2022-09-21T15:09:03.938Z,89.97
2022-09-21T15:14:24.467Z,90.36
2022-09-21T15:19:40.095Z,91.33
2022-09-21T15:24:51.810Z,91.30
2022-09-21T15:29:57.562Z,93.17
2022-09-21T15:35:03.667Z,95.24
2022-09-21T15:40:19.883Z,95.37
2022-09-21T15:45:27.282Z,96.09
2022-09-21T15:50:40.204Z,94.79
2022-09-21T15:56:49.664Z,96.64
2022-09-21T16:08:09.470Z,93.42
2022-09-21T16:13:37.996Z,92.68
2022-09-21T16:18:49.384Z,94.87
2022-09-21T16:23:55.457Z,95.77
2022-09-21T16:29:18.164Z,97.85
2022-09-21T16:34:35.264Z,100.00
2022-09-21T16:39:38.922Z,100.00
2022-09-21T16:44:45.063Z,100.00
2022-09-21T16:49:50.041Z,99.92
2022-09-21T16:54:56.558Z,100.00
2022-09-21T17:00:00.032Z,100.00
2022-09-21T17:05:08.612Z,100.00
2022-09-21T17:10:17.122Z,100.00
2022-09-21T17:15:22.913Z,100.00
2022-09-21T17:20:34.396Z,100.00
2022-09-21T17:25:40.362Z,100.00
2022-09-21T17:30:46.491Z,100.00
2022-09-21T17:35:53.138Z,100.00
2022-09-21T17:40:57.568Z,100.00
2022-09-21T17:46:09.245Z,100.00
2022-09-21T17:51:38.429Z,100.00
2022-09-21T17:56:48.316Z,100.00
2022-09-21T18:01:52.692Z,100.00
2022-09-21T18:06:59.295Z,100.00
2022-09-21T18:12:30.452Z,100.00
2022-09-21T18:17:52.572Z,100.00
2022-09-21T18:23:07.747Z,100.00
2022-09-21T18:28:17.129Z,100.00
2022-09-21T18:33:33.136Z,100.00
2022-09-21T18:38:42.711Z,100.00
2022-09-21T18:44:06.003Z,100.00
2022-09-21T18:49:28.997Z,100.00
2022-09-21T18:54:37.949Z,100.00
2022-09-21T18:59:44.496Z,100.00
2022-09-21T19:04:53.613Z,100.00
2022-09-21T19:10:08.398Z,100.00
2022-09-21T19:16:00.795Z,100.00
2022-09-21T19:21:21.842Z,100.00
2022-09-21T19:26:40.746Z,100.00
2022-09-21T19:31:50.510Z,100.00
2022-09-21T19:42:56.596Z,100.00
2022-09-21T19:48:07.081Z,100.00
2022-09-21T19:59:28.872Z,100.00
2022-09-21T20:04:39.409Z,100.00
2022-09-21T20:09:54.536Z,100.00
2022-09-21T20:15:15.926Z,100.00
2022-09-21T20:20:29.424Z,100.00
2022-09-21T20:25:40.269Z,100.00
2022-09-21T20:31:24.155Z,100.00
2022-09-21T20:36:45.087Z,100.00
2022-09-21T20:47:24.572Z,100.00
2022-09-21T20:52:30.740Z,100.00
2022-09-21T20:57:35.006Z,100.00
2022-09-21T21:02:44.293Z,100.00
2022-09-21T21:07:50.734Z,100.00
2022-09-21T21:13:37.333Z,100.00
2022-09-21T21:24:53.752Z,100.00
2022-09-21T21:29:57.772Z,100.00
2022-09-21T21:35:01.911Z,100.00
2022-09-21T21:40:09.114Z,100.00
2022-09-21T21:45:12.861Z,100.00
2022-09-21T21:50:16.780Z,100.00
2022-09-21T22:06:51.731Z,100.00
2022-09-21T22:11:55.121Z,100.00
2022-09-21T22:17:00.916Z,100.00
2022-09-21T22:22:05.834Z,100.00
2022-09-21T22:27:09.311Z,100.00
2022-09-21T22:32:12.804Z,100.00
2022-09-21T22:37:17.584Z,100.00
2022-09-21T22:42:20.999Z,100.00
2022-09-21T22:47:29.315Z,100.00
2022-09-21T22:52:34.737Z,100.00
2022-09-21T22:57:38.404Z,100.00
2022-09-21T23:02:43.554Z,100.00
2022-09-21T23:07:51.621Z,100.00
2022-09-21T23:12:55.265Z,100.00
2022-09-21T23:17:58.786Z,100.00
2022-09-21T23:23:06.068Z,100.00
2022-09-21T23:28:09.559Z,100.00
2022-09-21T23:33:13.325Z,100.00
2022-09-21T23:38:18.188Z,100.00
2022-09-21T23:43:21.870Z,100.00
2022-09-21T23:48:26.800Z,100.00
2022-09-21T23:53:32.312Z,100.00
2022-09-21T23:58:38.107Z,100.00
